Millington, TN

11:34 PM CDT on April 28, 2017 (GMT -0500)
Millington East | | Change Station
Active Advisory: Wind Advisory

Elev 315 ft 35.33 °N, 89.84 °W | Updated 12 minutes ago

Mostly Cloudy
Mostly Cloudy
77.7 °F
Feels Like 80 °F
N
0.0
Wind Variable Wind from East

Today
High -- | Low -- °F
--% Chance of Precip.
Yesterday
High -- | Low -- °F
Precip. -- in
Pressure 29.84 in
Visibility 10.0 miles
Clouds Mostly Cloudy 5500 ft
Heat Index 80 °F
Dew Point 72 °F
Humidity 82%
Rainfall 0.00 in
Snow Depth Not available.
6:11 AM 7:43 PM
Waxing Crescent, 11% visible
METAR KNQA 290350Z 16008KT 10SM BKN055 26/21 A2984
Pressure 29.84 in
Visibility 10.0 miles
Clouds Mostly Cloudy 5500 ft
Heat Index 80 °F
Dew Point 72 °F
Humidity 82%
Rainfall 0.00 in
Snow Depth Not available.
6:11 AM 7:43 PM
Waxing Crescent, 11% visible
METAR KNQA 290350Z 16008KT 10SM BKN055 26/21 A2984

Get Your Daily Forecast Email!

Thanks for signing up!

Be on the lookout for a verification email in your inbox.

You'll start receiving severe weather alerts in your inbox..

×

10-Day Weather Forecast

Almanac

Astronomy

Apr. 28, 2017 Rise Set
Actual Time
Civil Twilight
Nautical Twilight
Astronomical Twilight
Moon
Length of Visible Light
Length of Day
Tomorrow will be .
, % of the Moon is Illuminated

Today's Extremes

State Highs State Lows

Community

WunderPhotos

WunderBlog® & News

Nearby

Air Quality

  Air Quality AQ Index Pollutant
Not available.

Snow Depth

Station Depth Elevation

Earthquake Activity

City Distance Mag. Time & Date
Minimum magnitude displayed is 2.5.

Coastal Water Temperatures

Place Temperature

Stations

Nearby Weather Stations

Station Location Temp. Windchill Dew Point Humidity Wind Precip. Elev Updated Type
                   

Watches & Warnings

Wind Advisory
Issued: 1:55 PM CDT Apr. 28, 2017 – National Weather Service

... Wind Advisory in effect from 9 am to 7 PM CDT Saturday...

The National Weather Service in Memphis has issued a Wind
Advisory, which is in effect from 9 am to 7 PM CDT Saturday.

* Winds... south winds sustained of 20 to 30 mph... with gusts to
40 mph.

* Timing... 9 am CDT Saturday morning through 7 PM CDT Saturday
evening.

* Impacts... loose outdoor items will be vulnerable in the wind.
Driving may become hazardous... especially for high profile
vehicles on west to east roadways.

Precautionary/preparedness actions...

A Wind Advisory means that sustained winds of 25 to 39 mph are
expected... or gusts will range between 40 and 57 mph. Winds this
strong can make driving difficult... especially for high profile
vehicles. Use extra caution.



Jab